Terminal Aerodrome Forecast
Issued by NWS Houston/Galveston, TX

Home | Current Version | Previous Version | Text Only | Print | Product List | Glossary On
Versions: 1 2 3 4 5 6 7 8 9 10 11 12 13 14 15 16 17 18 19 20 21
000
FTUS44 KHGX 280314 AAA
TAFGLS
TAF AMD
KGLS 280314Z 2803/2824 16012KT P6SM OVC025
      TEMPO 2803/2807 SCT008 BKN015
     FM280700 17013KT P6SM SCT008 BKN015
     FM281100 16013KT 6SM HZ SCT008 BKN015=

USA.gov is the U.S. government's official web portal to all federal, state and local government web resources and services.